createdAt,value
2019-06-01T00:00:10.352Z,12.30
2019-06-01T00:02:28.806Z,12.30
2019-06-01T00:04:58.463Z,12.30
2019-06-01T00:07:28.118Z,12.20
2019-06-01T00:09:57.759Z,12.10
2019-06-01T00:12:27.424Z,12.00
2019-06-01T00:14:57.075Z,11.90
2019-06-01T00:17:26.760Z,11.90
2019-06-01T00:19:56.462Z,11.70
2019-06-01T00:22:26.068Z,11.70
2019-06-01T00:24:55.709Z,11.80
2019-06-01T00:27:25.331Z,11.60
2019-06-01T00:29:54.968Z,11.50
2019-06-01T00:32:24.642Z,11.50
2019-06-01T00:34:54.275Z,11.50
2019-06-01T00:37:23.911Z,11.40
2019-06-01T00:39:53.575Z,11.30
2019-06-01T00:42:23.219Z,11.30
2019-06-01T00:44:52.834Z,11.40
2019-06-01T00:47:22.466Z,11.40
2019-06-01T00:49:53.074Z,11.40
2019-06-01T00:52:22.792Z,11.30
2019-06-01T00:54:53.502Z,11.30
2019-06-01T00:57:23.249Z,11.40
2019-06-01T00:59:53.646Z,11.40
2019-06-01T01:02:24.195Z,11.40
2019-06-01T01:05:11.864Z,11.30
2019-06-01T01:07:41.521Z,11.30
2019-06-01T01:10:11.693Z,11.30
2019-06-01T01:12:58.608Z,11.30
2019-06-01T01:15:28.241Z,11.30
2019-06-01T01:17:57.871Z,11.30
2019-06-01T01:20:27.459Z,11.20
2019-06-01T01:22:57.127Z,11.30
2019-06-01T01:25:26.851Z,11.20
2019-06-01T01:27:57.047Z,11.20
2019-06-01T01:30:26.814Z,11.20
2019-06-01T01:32:58.204Z,11.20
2019-06-01T01:35:27.696Z,11.20
2019-06-01T01:38:00.297Z,11.20
2019-06-01T01:40:30.309Z,11.10
2019-06-01T01:42:59.983Z,11.20
2019-06-01T01:45:29.607Z,11.10
2019-06-01T01:47:59.308Z,11.10
2019-06-01T01:50:29.064Z,11.10
2019-06-01T01:52:59.027Z,11.00
2019-06-01T01:55:28.651Z,11.00
2019-06-01T01:57:59.429Z,11.00
2019-06-01T02:00:40.536Z,11.00
2019-06-01T02:03:10.526Z,11.10
2019-06-01T02:05:40.184Z,11.00
2019-06-01T02:08:10.885Z,11.10
2019-06-01T02:10:40.636Z,11.00
2019-06-01T02:13:10.527Z,11.00
2019-06-01T02:15:42.061Z,11.00
2019-06-01T02:18:11.956Z,11.10
2019-06-01T02:20:41.617Z,11.10
2019-06-01T02:23:11.288Z,11.10
2019-06-01T02:25:41.175Z,11.10
2019-06-01T02:28:10.806Z,11.00
2019-06-01T02:30:40.478Z,11.00
2019-06-01T02:33:10.122Z,11.00
2019-06-01T02:35:39.810Z,11.10
2019-06-01T02:38:09.460Z,11.10
2019-06-01T02:40:39.334Z,11.10
2019-06-01T02:43:09.074Z,11.10
2019-06-01T02:45:38.762Z,11.00
2019-06-01T02:48:08.694Z,11.00
2019-06-01T02:50:38.351Z,11.00
2019-06-01T02:53:08.008Z,11.10
2019-06-01T02:55:37.660Z,11.20
2019-06-01T02:58:07.272Z,11.40
2019-06-01T03:01:25.364Z,11.40
2019-06-01T03:03:57.639Z,11.50
2019-06-01T03:06:29.919Z,11.70
2019-06-01T03:09:01.990Z,11.70
2019-06-01T03:11:36.968Z,11.70
2019-06-01T03:14:09.120Z,11.90
2019-06-01T03:16:43.024Z,12.00
2019-06-01T03:19:14.173Z,12.00
2019-06-01T03:21:47.480Z,12.10
2019-06-01T03:24:18.566Z,12.20
2019-06-01T03:26:48.939Z,12.30
2019-06-01T03:29:20.793Z,12.50
2019-06-01T03:31:50.525Z,12.60
2019-06-01T03:34:20.170Z,12.70
2019-06-01T03:36:49.944Z,12.70
2019-06-01T03:39:19.803Z,12.60
2019-06-01T03:41:49.791Z,12.60
2019-06-01T03:44:19.487Z,12.70
2019-06-01T03:46:49.095Z,12.70
2019-06-01T03:49:18.736Z,12.60
2019-06-01T03:51:48.414Z,12.50
2019-06-01T03:54:18.101Z,12.60
2019-06-01T03:56:47.753Z,12.70
2019-06-01T03:59:17.412Z,12.60
2019-06-01T04:01:47.299Z,12.50
2019-06-01T04:04:17.015Z,12.50
2019-06-01T04:06:46.671Z,12.50
2019-06-01T04:09:16.351Z,12.40
2019-06-01T04:11:46.003Z,12.40
2019-06-01T04:14:15.652Z,12.40
2019-06-01T04:16:45.364Z,12.40
2019-06-01T04:19:15.039Z,12.40
2019-06-01T04:21:44.696Z,12.40
2019-06-01T04:24:14.345Z,12.20
2019-06-01T04:26:43.960Z,12.20
2019-06-01T04:29:13.591Z,12.10
2019-06-01T04:31:43.209Z,12.00
2019-06-01T04:34:13.162Z,12.10
2019-06-01T04:36:42.775Z,12.30
2019-06-01T04:39:13.613Z,12.50
2019-06-01T04:41:43.395Z,12.60
2019-06-01T04:44:14.183Z,12.50
2019-06-01T04:46:43.985Z,12.50
2019-06-01T04:49:14.944Z,12.50
2019-06-01T04:51:44.712Z,12.50
2019-06-01T04:54:15.721Z,12.70
2019-06-01T04:56:45.687Z,12.70
2019-06-01T04:59:15.525Z,12.50
2019-06-01T05:01:45.148Z,12.70
2019-06-01T05:04:15.484Z,12.80
2019-06-01T05:06:45.183Z,12.80
2019-06-01T05:09:15.709Z,12.90
2019-06-01T05:11:45.525Z,13.00
2019-06-01T05:14:16.531Z,13.10
2019-06-01T05:16:46.283Z,13.30
2019-06-01T05:19:16.631Z,13.30
2019-06-01T05:21:46.441Z,13.40
2019-06-01T05:24:17.103Z,13.60
2019-06-01T05:26:46.960Z,13.70
2019-06-01T05:29:18.036Z,13.90
2019-06-01T05:31:48.236Z,13.80
2019-06-01T05:34:18.397Z,13.60
2019-06-01T05:36:48.414Z,13.80
2019-06-01T05:39:18.693Z,13.60
2019-06-01T05:41:48.586Z,13.60
2019-06-01T05:44:19.291Z,13.80
2019-06-01T05:46:49.146Z,13.90
2019-06-01T05:49:18.794Z,14.00
2019-06-01T05:51:48.454Z,13.90
2019-06-01T05:54:18.939Z,13.70
2019-06-01T05:56:48.607Z,13.80
2019-06-01T05:59:18.323Z,14.00
2019-06-01T06:01:48.126Z,14.00
2019-06-01T06:04:17.722Z,14.00
2019-06-01T06:06:47.389Z,14.10
2019-06-01T06:09:17.215Z,14.10
2019-06-01T06:11:46.897Z,14.20
2019-06-01T06:14:17.565Z,14.20
2019-06-01T06:16:47.371Z,14.00
2019-06-01T06:19:19.231Z,14.00
2019-06-01T06:21:48.317Z,13.90
2019-06-01T06:24:18.571Z,13.80
2019-06-01T06:26:48.315Z,13.80
2019-06-01T06:29:18.937Z,13.70
2019-06-01T06:31:48.617Z,13.60
2019-06-01T06:34:19.623Z,13.50
2019-06-01T06:36:49.385Z,13.70
2019-06-01T06:39:20.066Z,13.80
2019-06-01T06:41:49.724Z,14.00
2019-06-01T06:44:20.509Z,14.20
2019-06-01T06:46:50.269Z,14.50
2019-06-01T06:49:21.299Z,14.60
2019-06-01T06:51:51.073Z,14.60
2019-06-01T06:54:21.807Z,14.40
2019-06-01T06:56:51.604Z,14.20
2019-06-01T06:59:22.373Z,14.10
2019-06-01T07:01:52.127Z,14.00
2019-06-01T07:04:21.789Z,13.90
2019-06-01T07:06:51.411Z,13.90
2019-06-01T07:09:21.915Z,14.00
2019-06-01T07:11:51.615Z,14.10
2019-06-01T07:14:21.346Z,14.20
2019-06-01T07:16:50.934Z,14.00
2019-06-01T07:19:21.572Z,13.80
2019-06-01T07:21:51.259Z,13.90
2019-06-01T07:24:21.754Z,13.90
2019-06-01T07:26:51.383Z,13.90
2019-06-01T07:29:22.012Z,13.80
2019-06-01T07:31:51.695Z,13.90
2019-06-01T07:34:37.257Z,13.80
2019-06-01T07:36:52.640Z,13.90
2019-06-01T07:39:22.619Z,14.10
2019-06-01T07:41:52.389Z,14.10
2019-06-01T07:44:22.755Z,14.20
2019-06-01T07:46:52.466Z,14.20
2019-06-01T07:49:23.227Z,14.30
2019-06-01T07:51:53.237Z,14.30
2019-06-01T07:54:24.737Z,14.40
2019-06-01T07:56:54.271Z,14.70
2019-06-01T07:59:24.564Z,14.50
2019-06-01T08:01:55.255Z,14.70
2019-06-01T08:04:26.631Z,14.80
2019-06-01T08:06:56.182Z,14.80
2019-06-01T08:09:26.519Z,14.70
2019-06-01T08:11:57.037Z,14.80
2019-06-01T08:14:26.688Z,14.90
2019-06-01T08:16:56.384Z,14.90
2019-06-01T08:19:26.069Z,15.20
2019-06-01T08:21:55.764Z,15.30
2019-06-01T08:24:26.214Z,15.30
2019-06-01T08:26:55.845Z,15.50
2019-06-01T08:29:26.535Z,15.10
2019-06-01T08:31:56.278Z,15.30
2019-06-01T08:34:26.916Z,15.30
2019-06-01T08:36:56.603Z,15.50
2019-06-01T08:39:27.393Z,15.70
2019-06-01T08:41:57.134Z,15.80
2019-06-01T08:44:27.690Z,15.80
2019-06-01T08:46:57.380Z,15.90
2019-06-01T08:49:27.993Z,15.70
2019-06-01T08:51:57.799Z,15.70
2019-06-01T08:54:28.140Z,15.60
2019-06-01T08:56:57.793Z,15.90
2019-06-01T08:59:28.371Z,15.90
2019-06-01T09:01:58.084Z,15.90
2019-06-01T09:04:28.856Z,16.30
2019-06-01T09:06:58.491Z,16.40
2019-06-01T09:09:28.973Z,16.20
2019-06-01T09:11:58.607Z,15.90
2019-06-01T09:14:29.171Z,16.10
2019-06-01T09:16:58.859Z,16.30
2019-06-01T09:19:29.432Z,16.20
2019-06-01T09:21:59.109Z,16.20
2019-06-01T09:24:29.751Z,16.10
2019-06-01T09:26:59.446Z,16.20
2019-06-01T09:29:29.995Z,16.30
2019-06-01T09:31:59.680Z,16.00
2019-06-01T09:34:30.448Z,15.70
2019-06-01T09:37:00.138Z,15.50
2019-06-01T09:39:30.992Z,15.60
2019-06-01T09:42:00.635Z,15.50
2019-06-01T09:44:31.930Z,15.30
2019-06-01T09:47:01.537Z,15.40
2019-06-01T09:49:32.641Z,15.30
2019-06-01T09:52:02.911Z,15.10
2019-06-01T09:54:34.162Z,15.20
2019-06-01T09:57:04.045Z,15.10
2019-06-01T09:59:34.002Z,15.20
2019-06-01T10:02:03.667Z,15.30
2019-06-01T10:04:34.316Z,15.20
2019-06-01T10:07:04.024Z,15.00
2019-06-01T10:09:33.710Z,14.80
2019-06-01T10:12:03.269Z,14.90
2019-06-01T10:14:33.968Z,14.90
2019-06-01T10:17:03.794Z,15.20
2019-06-01T10:19:34.592Z,15.20
2019-06-01T10:22:04.291Z,15.00
2019-06-01T10:24:34.895Z,15.10
2019-06-01T10:27:04.856Z,15.00
2019-06-01T10:29:34.684Z,14.90
2019-06-01T10:32:04.310Z,14.80
2019-06-01T10:34:33.931Z,14.40
2019-06-01T10:37:03.555Z,14.30
2019-06-01T10:39:33.177Z,14.40
2019-06-01T10:42:02.810Z,14.30
2019-06-01T10:44:36.779Z,14.30
2019-06-01T10:47:03.708Z,14.20
2019-06-01T10:49:33.851Z,14.30
2019-06-01T10:52:03.481Z,14.40
2019-06-01T10:54:34.298Z,14.40
2019-06-01T10:57:03.921Z,14.50
2019-06-01T10:59:34.286Z,14.80
2019-06-01T11:02:03.994Z,14.80
2019-06-01T11:04:34.892Z,14.80
2019-06-01T11:07:04.743Z,14.80
2019-06-01T11:09:34.851Z,14.90
2019-06-01T11:12:04.582Z,14.80
2019-06-01T11:14:34.843Z,14.70
2019-06-01T11:17:04.620Z,14.80
2019-06-01T11:19:35.257Z,14.80
2019-06-01T11:22:05.094Z,14.80
2019-06-01T11:24:35.324Z,14.80
2019-06-01T11:27:05.073Z,14.50
2019-06-01T11:29:38.832Z,14.60
2019-06-01T11:32:06.095Z,14.50
2019-06-01T11:34:36.407Z,14.60
2019-06-01T11:37:06.233Z,14.80
2019-06-01T11:39:36.336Z,14.80
2019-06-01T11:42:05.945Z,14.90
2019-06-01T11:44:36.599Z,15.00
2019-06-01T11:47:06.228Z,14.80
2019-06-01T11:49:36.628Z,14.60
2019-06-01T11:52:06.581Z,14.60
2019-06-01T11:54:37.037Z,15.20
2019-06-01T11:57:06.672Z,15.70
2019-06-01T11:59:37.268Z,16.20
2019-06-01T12:02:06.891Z,17.10
2019-06-01T12:04:37.768Z,16.60
2019-06-01T12:07:17.371Z,16.10
2019-06-01T12:09:39.783Z,16.00
2019-06-01T12:12:09.547Z,15.60
2019-06-01T12:14:40.317Z,15.50
2019-06-01T12:17:10.101Z,15.40
2019-06-01T12:19:40.742Z,15.40
2019-06-01T12:22:10.428Z,15.60
2019-06-01T12:24:40.952Z,16.00
2019-06-01T12:27:10.543Z,16.00
2019-06-01T12:29:41.450Z,16.10
2019-06-01T12:32:11.432Z,16.30
2019-06-01T12:34:41.971Z,16.50
2019-06-01T12:37:11.552Z,16.40
2019-06-01T12:39:42.282Z,16.50
2019-06-01T12:42:12.027Z,16.50
2019-06-01T12:44:41.704Z,16.50
2019-06-01T12:47:11.346Z,16.30
2019-06-01T12:49:42.025Z,16.10
2019-06-01T12:52:11.776Z,16.10
2019-06-01T12:54:42.928Z,16.10
2019-06-01T12:57:12.515Z,15.90
2019-06-01T12:59:43.155Z,15.80
2019-06-01T13:02:12.840Z,15.70
2019-06-01T13:04:42.841Z,15.70
2019-06-01T13:07:12.494Z,15.50
2019-06-01T13:09:42.148Z,15.60
2019-06-01T13:12:11.761Z,15.50
2019-06-01T13:14:41.383Z,15.30
2019-06-01T13:17:11.019Z,15.20
2019-06-01T13:19:43.632Z,15.20
2019-06-01T13:22:13.261Z,15.10
2019-06-01T13:24:43.652Z,15.20
2019-06-01T13:27:13.366Z,15.10
2019-06-01T13:29:43.699Z,15.00
2019-06-01T13:32:13.282Z,15.00
2019-06-01T13:34:42.907Z,15.10
2019-06-01T13:37:12.539Z,15.10
2019-06-01T13:39:42.942Z,15.10
2019-06-01T13:42:12.682Z,15.00
2019-06-01T13:44:43.343Z,14.90
2019-06-01T13:47:13.068Z,14.70
2019-06-01T13:49:44.540Z,14.70
2019-06-01T13:52:13.993Z,14.80
2019-06-01T13:54:44.024Z,14.70
2019-06-01T13:57:13.745Z,14.90
2019-06-01T13:59:44.543Z,14.90
2019-06-01T14:02:14.312Z,14.90
2019-06-01T14:04:45.122Z,14.80
2019-06-01T14:07:14.731Z,14.80
2019-06-01T14:09:45.173Z,14.80
2019-06-01T14:12:14.864Z,14.80
2019-06-01T14:14:45.344Z,14.80
2019-06-01T14:17:15.003Z,14.80
2019-06-01T14:19:45.642Z,14.80
2019-06-01T14:22:15.360Z,14.80
2019-06-01T14:24:51.478Z,14.80
2019-06-01T14:27:16.290Z,14.80
2019-06-01T14:29:46.394Z,14.70
2019-06-01T14:32:16.147Z,14.70
2019-06-01T14:34:46.295Z,14.70
2019-06-01T14:37:15.992Z,14.70
2019-06-01T14:39:46.748Z,14.70
2019-06-01T14:42:16.417Z,14.80
2019-06-01T14:44:47.166Z,14.90
2019-06-01T14:47:18.752Z,15.00
2019-06-01T14:49:49.402Z,15.10
2019-06-01T14:52:19.132Z,15.10
2019-06-01T14:54:49.622Z,15.30
2019-06-01T14:57:19.400Z,15.30
2019-06-01T14:59:50.413Z,15.30
2019-06-01T15:02:20.159Z,15.50
2019-06-01T15:04:50.056Z,15.60
2019-06-01T15:07:19.745Z,15.70
2019-06-01T15:09:50.100Z,15.80
2019-06-01T15:12:19.790Z,16.00
2019-06-01T15:14:50.776Z,16.00
2019-06-01T15:17:20.547Z,16.10
2019-06-01T15:19:50.183Z,16.10
2019-06-01T15:22:19.786Z,16.30
2019-06-01T15:24:50.324Z,16.20
2019-06-01T15:27:19.993Z,16.10
2019-06-01T15:29:50.692Z,16.10
2019-06-01T15:32:20.396Z,16.10
2019-06-01T15:34:50.341Z,16.20
2019-06-01T15:37:19.974Z,16.20
2019-06-01T15:39:50.542Z,16.30
2019-06-01T15:42:20.133Z,16.40
2019-06-01T15:44:50.937Z,16.50
2019-06-01T15:47:20.632Z,16.70
2019-06-01T15:49:51.581Z,16.80
2019-06-01T15:52:21.281Z,17.00
2019-06-01T15:54:52.102Z,16.90
2019-06-01T15:57:21.795Z,16.90
2019-06-01T15:59:52.442Z,16.90
2019-06-01T16:02:22.159Z,17.00
2019-06-01T16:04:52.906Z,17.10
2019-06-01T16:07:22.522Z,17.10
2019-06-01T16:09:53.125Z,17.00
2019-06-01T16:12:22.776Z,17.00
2019-06-01T16:14:53.372Z,17.00
2019-06-01T16:17:22.964Z,16.90
2019-06-01T16:19:53.824Z,16.80
2019-06-01T16:22:25.032Z,16.90
2019-06-01T16:24:54.667Z,16.80
2019-06-01T16:27:24.294Z,16.70
2019-06-01T16:29:54.590Z,16.70
2019-06-01T16:32:24.293Z,16.70
2019-06-01T16:34:54.875Z,16.70
2019-06-01T16:37:24.609Z,16.50
2019-06-01T16:39:59.786Z,16.50
2019-06-01T16:42:25.560Z,16.50
2019-06-01T16:44:55.362Z,16.40
2019-06-01T16:47:24.946Z,16.50
2019-06-01T16:49:55.769Z,16.40
2019-06-01T16:52:25.727Z,16.50
2019-06-01T16:54:56.213Z,16.50
2019-06-01T16:57:25.887Z,16.50
2019-06-01T16:59:56.319Z,16.40
2019-06-01T17:02:25.988Z,16.20
2019-06-01T17:04:56.497Z,16.10
2019-06-01T17:07:26.216Z,16.20
2019-06-01T17:09:56.646Z,16.20
2019-06-01T17:12:26.407Z,16.20
2019-06-01T17:14:56.806Z,16.30
2019-06-01T17:17:26.476Z,16.20
2019-06-01T17:19:56.936Z,16.20
2019-06-01T17:22:26.647Z,16.20
2019-06-01T17:24:57.553Z,16.20
2019-06-01T17:27:27.182Z,16.20
2019-06-01T17:29:57.980Z,16.20
2019-06-01T17:32:27.721Z,16.10
2019-06-01T17:34:58.513Z,16.20
2019-06-01T17:37:28.180Z,16.30
2019-06-01T17:39:57.810Z,16.20
2019-06-01T17:42:27.492Z,16.30
2019-06-01T17:44:57.096Z,16.20
2019-06-01T17:47:27.171Z,16.20
2019-06-01T17:49:57.119Z,16.20
2019-06-01T17:52:26.782Z,16.30
2019-06-01T17:54:56.423Z,16.30
2019-06-01T17:57:26.040Z,16.30
2019-06-01T17:59:55.653Z,16.30
2019-06-01T18:02:25.286Z,16.10
2019-06-01T18:04:54.935Z,16.10
2019-06-01T18:07:24.561Z,16.00
2019-06-01T18:09:54.252Z,16.00
2019-06-01T18:12:23.921Z,16.00
2019-06-01T18:14:53.544Z,16.00
2019-06-01T18:17:23.172Z,16.00
2019-06-01T18:19:52.786Z,15.90
2019-06-01T18:22:22.434Z,15.90
2019-06-01T18:24:52.125Z,15.80
2019-06-01T18:27:21.957Z,15.70
2019-06-01T18:29:51.602Z,15.60
2019-06-01T18:32:21.261Z,15.60
2019-06-01T18:34:50.874Z,15.60
2019-06-01T18:37:20.488Z,15.50
2019-06-01T18:39:50.140Z,15.40
2019-06-01T18:42:22.219Z,15.40
2019-06-01T18:44:51.838Z,15.30
2019-06-01T18:47:31.778Z,15.20
2019-06-01T18:49:52.765Z,15.30
2019-06-01T18:52:22.479Z,15.30
2019-06-01T18:54:52.119Z,15.30
2019-06-01T18:57:21.799Z,15.20
2019-06-01T18:59:51.435Z,15.10
2019-06-01T19:02:21.051Z,15.10
2019-06-01T19:04:50.710Z,15.10
2019-06-01T19:07:20.306Z,15.10
2019-06-01T19:09:49.956Z,15.10
2019-06-01T19:12:19.586Z,15.10
2019-06-01T19:14:49.224Z,15.00
2019-06-01T19:17:18.852Z,14.90
2019-06-01T19:19:48.452Z,15.00
2019-06-01T19:22:18.091Z,15.00
2019-06-01T19:24:47.714Z,15.00
2019-06-01T19:27:17.394Z,15.00
2019-06-01T19:29:46.983Z,15.00
2019-06-01T19:32:20.860Z,15.00
2019-06-01T19:34:48.556Z,15.00
2019-06-01T19:37:18.887Z,15.00
2019-06-01T19:39:49.041Z,15.00
2019-06-01T19:42:18.683Z,14.90
2019-06-01T19:44:48.329Z,15.00
2019-06-01T19:47:19.022Z,14.90
2019-06-01T19:49:48.835Z,15.00
2019-06-01T19:52:19.014Z,15.00
2019-06-01T19:54:48.753Z,15.00
2019-06-01T19:57:21.775Z,15.00
2019-06-01T19:59:49.707Z,15.00
2019-06-01T20:02:28.327Z,15.10
2019-06-01T20:04:50.805Z,15.10
2019-06-01T20:07:21.401Z,15.10
2019-06-01T20:09:51.254Z,15.10
2019-06-01T20:12:20.914Z,15.10
2019-06-01T20:14:50.601Z,15.10
2019-06-01T20:17:24.823Z,15.10
2019-06-01T20:19:51.596Z,15.20
2019-06-01T20:22:21.370Z,15.20
2019-06-01T20:24:51.047Z,15.20
2019-06-01T20:27:21.648Z,15.20
2019-06-01T20:29:51.400Z,15.20
2019-06-01T20:32:22.199Z,15.10
2019-06-01T20:34:51.942Z,15.10
2019-06-01T20:37:22.225Z,15.10
2019-06-01T20:39:52.056Z,15.10
2019-06-01T20:42:30.178Z,15.10
2019-06-01T20:44:53.038Z,15.10
2019-06-01T20:47:22.939Z,15.10
2019-06-01T20:49:52.636Z,15.10
2019-06-01T20:52:23.299Z,15.10
2019-06-01T20:54:53.044Z,15.10
2019-06-01T20:57:23.984Z,15.20
2019-06-01T20:59:53.689Z,15.10
2019-06-01T21:02:24.155Z,15.10
2019-06-01T21:04:53.876Z,15.10
2019-06-01T21:07:24.188Z,15.10
2019-06-01T21:09:53.913Z,15.10
2019-06-01T21:12:42.630Z,15.10
2019-06-01T21:14:54.815Z,15.10
2019-06-01T21:17:24.562Z,15.10
2019-06-01T21:19:54.235Z,15.10
2019-06-01T21:22:24.933Z,15.00
2019-06-01T21:24:54.671Z,15.10
2019-06-01T21:27:24.902Z,15.00
2019-06-01T21:29:54.536Z,15.00
2019-06-01T21:32:24.200Z,14.90
2019-06-01T21:34:53.846Z,15.00
2019-06-01T21:37:23.547Z,14.80
2019-06-01T21:39:53.117Z,14.80
2019-06-01T21:42:23.657Z,14.90
2019-06-01T21:44:53.388Z,14.90
2019-06-01T21:47:23.829Z,14.90
2019-06-01T21:49:53.535Z,14.90
2019-06-01T21:52:24.274Z,14.80
2019-06-01T21:54:53.988Z,14.80
2019-06-01T21:57:24.601Z,14.80
2019-06-01T21:59:54.504Z,14.70
2019-06-01T22:02:25.059Z,14.70
2019-06-01T22:04:54.788Z,14.80
2019-06-01T22:07:25.332Z,14.60
2019-06-01T22:09:55.033Z,14.60
2019-06-01T22:12:25.772Z,14.70
2019-06-01T22:14:55.456Z,14.60
2019-06-01T22:17:25.855Z,14.60
2019-06-01T22:19:55.627Z,14.70
2019-06-01T22:22:25.840Z,14.60
2019-06-01T22:24:55.500Z,14.60
2019-06-01T22:27:26.271Z,14.60
2019-06-01T22:29:56.128Z,14.60
2019-06-01T22:32:29.225Z,14.60
2019-06-01T22:34:57.150Z,14.60
2019-06-01T22:37:28.178Z,14.70
2019-06-01T22:39:57.977Z,14.60
2019-06-01T22:42:28.444Z,14.70
2019-06-01T22:44:58.197Z,14.60
2019-06-01T22:47:29.012Z,14.60
2019-06-01T22:49:58.753Z,14.60
2019-06-01T22:52:29.162Z,14.60
2019-06-01T22:54:58.832Z,14.50
2019-06-01T22:57:28.555Z,14.60
2019-06-01T22:59:58.179Z,14.60
2019-06-01T23:02:27.951Z,14.50
2019-06-01T23:04:57.619Z,14.40
2019-06-01T23:07:27.348Z,14.50
2019-06-01T23:09:56.918Z,14.50
2019-06-01T23:12:27.582Z,14.50
2019-06-01T23:14:57.326Z,14.50
2019-06-01T23:17:27.961Z,14.50
2019-06-01T23:19:57.667Z,14.40
2019-06-01T23:22:28.188Z,14.40
2019-06-01T23:24:57.914Z,14.40
2019-06-01T23:27:28.300Z,14.40
2019-06-01T23:29:58.043Z,14.30
2019-06-01T23:32:28.518Z,14.30
2019-06-01T23:34:58.251Z,14.30
2019-06-01T23:37:28.821Z,14.30
2019-06-01T23:39:58.499Z,14.30
2019-06-01T23:42:28.804Z,14.40
2019-06-01T23:44:58.530Z,14.40
2019-06-01T23:47:29.364Z,14.40
2019-06-01T23:49:59.070Z,14.20
2019-06-01T23:52:29.602Z,14.20
2019-06-01T23:54:59.290Z,14.10
2019-06-01T23:57:29.951Z,14.10
2019-06-01T23:59:59.709Z,14.10
